sensor_id;sensor_type;location;lat;lon;timestamp;P1;durP1;ratioP1;P2;durP2;ratioP2
15356;SDS011;7778;48.792;9.260;2023-12-29T00:01:50;4.00;;;1.40;;
15356;SDS011;7778;48.792;9.260;2023-12-29T00:04:36;1.90;;;1.10;;
15356;SDS011;7778;48.792;9.260;2023-12-29T00:07:23;1.40;;;1.30;;
15356;SDS011;7778;48.792;9.260;2023-12-29T00:10:08;1.98;;;1.33;;
15356;SDS011;7778;48.792;9.260;2023-12-29T00:12:54;2.25;;;1.40;;
15356;SDS011;7778;48.792;9.260;2023-12-29T00:15:40;1.40;;;1.02;;
15356;SDS011;7778;48.792;9.260;2023-12-29T00:18:26;1.17;;;1.08;;
15356;SDS011;7778;48.792;9.260;2023-12-29T00:21:11;2.03;;;1.30;;
15356;SDS011;7778;48.792;9.260;2023-12-29T00:23:58;1.05;;;1.00;;
15356;SDS011;7778;48.792;9.260;2023-12-29T00:26:44;2.00;;;1.30;;
15356;SDS011;7778;48.792;9.260;2023-12-29T00:29:31;1.27;;;1.10;;
15356;SDS011;7778;48.792;9.260;2023-12-29T00:32:17;1.67;;;1.27;;
15356;SDS011;7778;48.792;9.260;2023-12-29T00:35:02;1.40;;;1.20;;
15356;SDS011;7778;48.792;9.260;2023-12-29T00:37:49;4.25;;;1.58;;
15356;SDS011;7778;48.792;9.260;2023-12-29T00:40:36;2.22;;;1.13;;
15356;SDS011;7778;48.792;9.260;2023-12-29T00:43:22;1.45;;;1.35;;
15356;SDS011;7778;48.792;9.260;2023-12-29T00:46:08;1.70;;;1.60;;
15356;SDS011;7778;48.792;9.260;2023-12-29T00:48:53;1.20;;;1.10;;
15356;SDS011;7778;48.792;9.260;2023-12-29T00:51:40;2.90;;;1.42;;
15356;SDS011;7778;48.792;9.260;2023-12-29T00:54:26;2.42;;;1.55;;
15356;SDS011;7778;48.792;9.260;2023-12-29T00:57:13;1.67;;;1.55;;
15356;SDS011;7778;48.792;9.260;2023-12-29T00:59:59;1.55;;;1.30;;
15356;SDS011;7778;48.792;9.260;2023-12-29T01:02:45;2.05;;;1.35;;
15356;SDS011;7778;48.792;9.260;2023-12-29T01:05:31;1.83;;;1.52;;
15356;SDS011;7778;48.792;9.260;2023-12-29T01:08:16;2.15;;;1.30;;
15356;SDS011;7778;48.792;9.260;2023-12-29T01:11:02;1.98;;;1.30;;
15356;SDS011;7778;48.792;9.260;2023-12-29T01:13:49;1.65;;;1.35;;
15356;SDS011;7778;48.792;9.260;2023-12-29T01:16:35;9.07;;;2.90;;
15356;SDS011;7778;48.792;9.260;2023-12-29T01:19:20;4.43;;;1.98;;
15356;SDS011;7778;48.792;9.260;2023-12-29T01:22:06;1.52;;;1.23;;
15356;SDS011;7778;48.792;9.260;2023-12-29T01:24:51;2.05;;;1.42;;
15356;SDS011;7778;48.792;9.260;2023-12-29T01:27:37;2.72;;;1.75;;
15356;SDS011;7778;48.792;9.260;2023-12-29T01:30:24;1.52;;;1.40;;
15356;SDS011;7778;48.792;9.260;2023-12-29T01:33:09;3.95;;;1.92;;
15356;SDS011;7778;48.792;9.260;2023-12-29T01:35:55;2.70;;;1.63;;
15356;SDS011;7778;48.792;9.260;2023-12-29T01:38:40;1.40;;;1.25;;
15356;SDS011;7778;48.792;9.260;2023-12-29T01:41:26;2.03;;;1.40;;
15356;SDS011;7778;48.792;9.260;2023-12-29T01:44:18;2.38;;;1.55;;
15356;SDS011;7778;48.792;9.260;2023-12-29T01:47:10;1.55;;;1.38;;
15356;SDS011;7778;48.792;9.260;2023-12-29T01:49:59;1.77;;;1.58;;
15356;SDS011;7778;48.792;9.260;2023-12-29T01:52:45;2.50;;;1.80;;
15356;SDS011;7778;48.792;9.260;2023-12-29T01:55:31;2.17;;;1.40;;
15356;SDS011;7778;48.792;9.260;2023-12-29T01:58:18;1.58;;;1.48;;
15356;SDS011;7778;48.792;9.260;2023-12-29T02:01:05;3.05;;;1.58;;
15356;SDS011;7778;48.792;9.260;2023-12-29T02:03:53;4.18;;;1.90;;
15356;SDS011;7778;48.792;9.260;2023-12-29T02:06:39;3.20;;;1.67;;
15356;SDS011;7778;48.792;9.260;2023-12-29T02:09:25;1.70;;;1.58;;
15356;SDS011;7778;48.792;9.260;2023-12-29T02:12:11;2.35;;;1.63;;
15356;SDS011;7778;48.792;9.260;2023-12-29T02:14:56;4.82;;;2.03;;
15356;SDS011;7778;48.792;9.260;2023-12-29T02:17:43;2.00;;;1.70;;
15356;SDS011;7778;48.792;9.260;2023-12-29T02:20:47;2.38;;;1.90;;
15356;SDS011;7778;48.792;9.260;2023-12-29T02:23:33;2.88;;;1.83;;
15356;SDS011;7778;48.792;9.260;2023-12-29T02:26:20;3.63;;;1.88;;
15356;SDS011;7778;48.792;9.260;2023-12-29T02:29:10;4.30;;;2.00;;
15356;SDS011;7778;48.792;9.260;2023-12-29T02:32:03;5.28;;;2.08;;
15356;SDS011;7778;48.792;9.260;2023-12-29T02:34:51;2.65;;;1.80;;
15356;SDS011;7778;48.792;9.260;2023-12-29T02:37:37;2.72;;;1.63;;
15356;SDS011;7778;48.792;9.260;2023-12-29T02:40:24;3.42;;;2.00;;
15356;SDS011;7778;48.792;9.260;2023-12-29T02:43:12;2.25;;;1.77;;
15356;SDS011;7778;48.792;9.260;2023-12-29T02:45:58;2.30;;;1.70;;
15356;SDS011;7778;48.792;9.260;2023-12-29T02:48:44;2.55;;;2.00;;
15356;SDS011;7778;48.792;9.260;2023-12-29T02:51:31;2.47;;;1.63;;
15356;SDS011;7778;48.792;9.260;2023-12-29T02:54:16;2.13;;;1.80;;
15356;SDS011;7778;48.792;9.260;2023-12-29T02:57:02;4.60;;;1.80;;
15356;SDS011;7778;48.792;9.260;2023-12-29T02:59:49;5.13;;;2.97;;
15356;SDS011;7778;48.792;9.260;2023-12-29T03:02:34;2.30;;;1.60;;
15356;SDS011;7778;48.792;9.260;2023-12-29T03:05:20;5.35;;;1.95;;
15356;SDS011;7778;48.792;9.260;2023-12-29T03:08:05;3.15;;;1.70;;
15356;SDS011;7778;48.792;9.260;2023-12-29T03:10:51;3.25;;;1.80;;
15356;SDS011;7778;48.792;9.260;2023-12-29T03:13:36;2.67;;;1.65;;
15356;SDS011;7778;48.792;9.260;2023-12-29T03:16:23;4.00;;;1.90;;
15356;SDS011;7778;48.792;9.260;2023-12-29T03:19:09;5.13;;;2.47;;
15356;SDS011;7778;48.792;9.260;2023-12-29T03:21:54;2.67;;;2.03;;
15356;SDS011;7778;48.792;9.260;2023-12-29T03:24:40;4.82;;;3.00;;
15356;SDS011;7778;48.792;9.260;2023-12-29T03:27:26;2.85;;;2.00;;
15356;SDS011;7778;48.792;9.260;2023-12-29T03:30:12;2.65;;;2.30;;
15356;SDS011;7778;48.792;9.260;2023-12-29T03:32:59;3.60;;;1.67;;
15356;SDS011;7778;48.792;9.260;2023-12-29T03:35:45;2.00;;;1.80;;
15356;SDS011;7778;48.792;9.260;2023-12-29T03:38:30;2.58;;;1.88;;
15356;SDS011;7778;48.792;9.260;2023-12-29T03:41:17;2.83;;;1.98;;
15356;SDS011;7778;48.792;9.260;2023-12-29T03:44:03;3.28;;;2.03;;
15356;SDS011;7778;48.792;9.260;2023-12-29T03:46:49;2.20;;;1.80;;
15356;SDS011;7778;48.792;9.260;2023-12-29T03:49:36;4.38;;;1.67;;
15356;SDS011;7778;48.792;9.260;2023-12-29T03:52:24;3.08;;;1.90;;
15356;SDS011;7778;48.792;9.260;2023-12-29T03:55:10;2.78;;;2.13;;
15356;SDS011;7778;48.792;9.260;2023-12-29T03:57:55;4.45;;;2.00;;
15356;SDS011;7778;48.792;9.260;2023-12-29T04:00:41;4.65;;;2.58;;
15356;SDS011;7778;48.792;9.260;2023-12-29T04:03:27;2.72;;;1.80;;
15356;SDS011;7778;48.792;9.260;2023-12-29T04:06:14;2.25;;;1.50;;
15356;SDS011;7778;48.792;9.260;2023-12-29T04:08:59;5.22;;;1.90;;
15356;SDS011;7778;48.792;9.260;2023-12-29T04:11:45;2.38;;;1.83;;
15356;SDS011;7778;48.792;9.260;2023-12-29T04:14:31;2.70;;;1.77;;
15356;SDS011;7778;48.792;9.260;2023-12-29T04:17:17;1.83;;;1.65;;
15356;SDS011;7778;48.792;9.260;2023-12-29T04:20:02;2.85;;;1.67;;
15356;SDS011;7778;48.792;9.260;2023-12-29T04:22:50;2.13;;;1.50;;
15356;SDS011;7778;48.792;9.260;2023-12-29T04:25:36;1.33;;;1.23;;
15356;SDS011;7778;48.792;9.260;2023-12-29T04:28:21;4.05;;;1.55;;
15356;SDS011;7778;48.792;9.260;2023-12-29T04:31:07;3.35;;;1.40;;
15356;SDS011;7778;48.792;9.260;2023-12-29T04:33:52;3.78;;;1.90;;
15356;SDS011;7778;48.792;9.260;2023-12-29T04:36:38;2.15;;;1.40;;
15356;SDS011;7778;48.792;9.260;2023-12-29T04:39:25;1.38;;;1.25;;
15356;SDS011;7778;48.792;9.260;2023-12-29T04:42:11;2.47;;;1.75;;
15356;SDS011;7778;48.792;9.260;2023-12-29T04:44:56;1.38;;;1.27;;
15356;SDS011;7778;48.792;9.260;2023-12-29T04:47:42;1.65;;;1.40;;
15356;SDS011;7778;48.792;9.260;2023-12-29T04:50:27;2.40;;;1.65;;
15356;SDS011;7778;48.792;9.260;2023-12-29T04:53:13;3.05;;;1.77;;
15356;SDS011;7778;48.792;9.260;2023-12-29T04:55:59;3.40;;;1.92;;
15356;SDS011;7778;48.792;9.260;2023-12-29T04:58:45;1.70;;;1.20;;
15356;SDS011;7778;48.792;9.260;2023-12-29T05:01:31;3.47;;;2.33;;
15356;SDS011;7778;48.792;9.260;2023-12-29T05:04:16;3.45;;;1.52;;
15356;SDS011;7778;48.792;9.260;2023-12-29T05:07:02;2.60;;;1.48;;
15356;SDS011;7778;48.792;9.260;2023-12-29T05:09:48;2.17;;;1.75;;
15356;SDS011;7778;48.792;9.260;2023-12-29T05:12:35;1.88;;;1.70;;
15356;SDS011;7778;48.792;9.260;2023-12-29T05:15:20;1.67;;;1.45;;
15356;SDS011;7778;48.792;9.260;2023-12-29T05:18:06;1.58;;;1.45;;
15356;SDS011;7778;48.792;9.260;2023-12-29T05:20:51;1.80;;;1.48;;
15356;SDS011;7778;48.792;9.260;2023-12-29T05:23:38;5.03;;;2.42;;
15356;SDS011;7778;48.792;9.260;2023-12-29T05:26:23;4.32;;;1.85;;
15356;SDS011;7778;48.792;9.260;2023-12-29T05:29:10;1.85;;;1.45;;
15356;SDS011;7778;48.792;9.260;2023-12-29T05:31:55;2.83;;;1.52;;
15356;SDS011;7778;48.792;9.260;2023-12-29T05:34:41;2.25;;;1.67;;
15356;SDS011;7778;48.792;9.260;2023-12-29T05:37:26;2.08;;;1.83;;
15356;SDS011;7778;48.792;9.260;2023-12-29T05:40:12;2.22;;;1.70;;
15356;SDS011;7778;48.792;9.260;2023-12-29T05:42:58;1.35;;;1.20;;
15356;SDS011;7778;48.792;9.260;2023-12-29T05:45:45;3.45;;;1.40;;
15356;SDS011;7778;48.792;9.260;2023-12-29T05:48:31;1.70;;;1.50;;
15356;SDS011;7778;48.792;9.260;2023-12-29T05:51:16;6.53;;;1.80;;
15356;SDS011;7778;48.792;9.260;2023-12-29T05:54:02;2.42;;;1.60;;
15356;SDS011;7778;48.792;9.260;2023-12-29T05:56:49;3.00;;;1.98;;
15356;SDS011;7778;48.792;9.260;2023-12-29T05:59:34;3.95;;;1.98;;
15356;SDS011;7778;48.792;9.260;2023-12-29T06:02:21;3.45;;;1.73;;
15356;SDS011;7778;48.792;9.260;2023-12-29T06:05:07;2.50;;;1.80;;
15356;SDS011;7778;48.792;9.260;2023-12-29T06:07:55;2.95;;;1.63;;
15356;SDS011;7778;48.792;9.260;2023-12-29T06:10:41;2.67;;;1.98;;
15356;SDS011;7778;48.792;9.260;2023-12-29T06:13:27;1.92;;;1.70;;
15356;SDS011;7778;48.792;9.260;2023-12-29T06:16:17;2.60;;;2.00;;
15356;SDS011;7778;48.792;9.260;2023-12-29T06:19:05;3.22;;;1.92;;
15356;SDS011;7778;48.792;9.260;2023-12-29T06:21:51;2.03;;;1.77;;
15356;SDS011;7778;48.792;9.260;2023-12-29T06:24:36;2.30;;;1.52;;
15356;SDS011;7778;48.792;9.260;2023-12-29T06:27:22;2.25;;;1.65;;
15356;SDS011;7778;48.792;9.260;2023-12-29T06:30:09;3.55;;;1.65;;
15356;SDS011;7778;48.792;9.260;2023-12-29T06:32:56;2.15;;;1.70;;
15356;SDS011;7778;48.792;9.260;2023-12-29T06:35:43;1.40;;;1.30;;
15356;SDS011;7778;48.792;9.260;2023-12-29T06:38:29;2.20;;;1.77;;
15356;SDS011;7778;48.792;9.260;2023-12-29T06:41:17;1.88;;;1.67;;
15356;SDS011;7778;48.792;9.260;2023-12-29T06:44:04;2.50;;;1.63;;
15356;SDS011;7778;48.792;9.260;2023-12-29T06:46:50;3.88;;;2.00;;
15356;SDS011;7778;48.792;9.260;2023-12-29T06:49:35;2.38;;;1.27;;
15356;SDS011;7778;48.792;9.260;2023-12-29T06:52:22;4.50;;;1.60;;
15356;SDS011;7778;48.792;9.260;2023-12-29T06:55:09;1.85;;;1.35;;
15356;SDS011;7778;48.792;9.260;2023-12-29T06:57:55;2.28;;;1.30;;
15356;SDS011;7778;48.792;9.260;2023-12-29T07:00:40;2.28;;;1.60;;
15356;SDS011;7778;48.792;9.260;2023-12-29T07:03:26;1.45;;;1.33;;
15356;SDS011;7778;48.792;9.260;2023-12-29T07:06:12;2.33;;;1.27;;
15356;SDS011;7778;48.792;9.260;2023-12-29T07:08:58;2.20;;;1.58;;
15356;SDS011;7778;48.792;9.260;2023-12-29T07:11:47;1.73;;;1.45;;
15356;SDS011;7778;48.792;9.260;2023-12-29T07:14:33;1.95;;;1.60;;
15356;SDS011;7778;48.792;9.260;2023-12-29T07:17:19;2.63;;;1.55;;
15356;SDS011;7778;48.792;9.260;2023-12-29T07:20:05;2.00;;;1.58;;
15356;SDS011;7778;48.792;9.260;2023-12-29T07:22:53;1.35;;;1.25;;
15356;SDS011;7778;48.792;9.260;2023-12-29T07:25:40;3.63;;;1.85;;
15356;SDS011;7778;48.792;9.260;2023-12-29T07:28:26;2.90;;;1.90;;
15356;SDS011;7778;48.792;9.260;2023-12-29T07:31:11;4.13;;;2.28;;
15356;SDS011;7778;48.792;9.260;2023-12-29T07:33:58;1.80;;;1.67;;
15356;SDS011;7778;48.792;9.260;2023-12-29T07:36:44;1.50;;;1.40;;
15356;SDS011;7778;48.792;9.260;2023-12-29T07:39:30;1.65;;;1.25;;
15356;SDS011;7778;48.792;9.260;2023-12-29T07:42:17;1.73;;;1.35;;
15356;SDS011;7778;48.792;9.260;2023-12-29T07:45:03;2.40;;;1.70;;
15356;SDS011;7778;48.792;9.260;2023-12-29T07:47:52;1.92;;;1.17;;
15356;SDS011;7778;48.792;9.260;2023-12-29T07:50:38;1.98;;;1.52;;
15356;SDS011;7778;48.792;9.260;2023-12-29T07:53:24;2.72;;;1.63;;
15356;SDS011;7778;48.792;9.260;2023-12-29T07:56:09;2.58;;;1.80;;
15356;SDS011;7778;48.792;9.260;2023-12-29T07:58:57;4.30;;;1.45;;
15356;SDS011;7778;48.792;9.260;2023-12-29T08:01:42;4.57;;;1.55;;
15356;SDS011;7778;48.792;9.260;2023-12-29T08:04:28;2.00;;;1.50;;
15356;SDS011;7778;48.792;9.260;2023-12-29T08:07:14;1.88;;;1.50;;
15356;SDS011;7778;48.792;9.260;2023-12-29T08:09:59;2.05;;;1.30;;
15356;SDS011;7778;48.792;9.260;2023-12-29T08:12:45;2.33;;;1.40;;
15356;SDS011;7778;48.792;9.260;2023-12-29T08:15:32;1.98;;;1.55;;
15356;SDS011;7778;48.792;9.260;2023-12-29T08:18:18;1.10;;;1.05;;
15356;SDS011;7778;48.792;9.260;2023-12-29T08:21:07;2.60;;;1.65;;
15356;SDS011;7778;48.792;9.260;2023-12-29T08:24:01;1.73;;;1.00;;
15356;SDS011;7778;48.792;9.260;2023-12-29T08:26:47;2.30;;;1.63;;
15356;SDS011;7778;48.792;9.260;2023-12-29T08:29:33;1.60;;;1.13;;
15356;SDS011;7778;48.792;9.260;2023-12-29T08:32:20;2.50;;;1.80;;
15356;SDS011;7778;48.792;9.260;2023-12-29T08:35:06;5.20;;;1.33;;
15356;SDS011;7778;48.792;9.260;2023-12-29T08:37:52;1.35;;;1.25;;
15356;SDS011;7778;48.792;9.260;2023-12-29T08:40:38;2.45;;;1.60;;
15356;SDS011;7778;48.792;9.260;2023-12-29T08:43:24;3.28;;;1.80;;
15356;SDS011;7778;48.792;9.260;2023-12-29T08:46:09;1.75;;;1.60;;
15356;SDS011;7778;48.792;9.260;2023-12-29T08:48:57;1.52;;;1.42;;
15356;SDS011;7778;48.792;9.260;2023-12-29T08:51:42;2.15;;;1.10;;
15356;SDS011;7778;48.792;9.260;2023-12-29T08:54:27;2.38;;;1.48;;
15356;SDS011;7778;48.792;9.260;2023-12-29T08:57:13;2.22;;;1.42;;
15356;SDS011;7778;48.792;9.260;2023-12-29T08:59:59;2.15;;;1.65;;
15356;SDS011;7778;48.792;9.260;2023-12-29T09:02:44;2.85;;;1.50;;
15356;SDS011;7778;48.792;9.260;2023-12-29T09:05:31;2.55;;;1.35;;
15356;SDS011;7778;48.792;9.260;2023-12-29T09:08:17;2.13;;;1.38;;
15356;SDS011;7778;48.792;9.260;2023-12-29T09:11:03;2.03;;;1.40;;
15356;SDS011;7778;48.792;9.260;2023-12-29T09:13:49;2.22;;;1.48;;
15356;SDS011;7778;48.792;9.260;2023-12-29T09:16:35;1.50;;;1.23;;
15356;SDS011;7778;48.792;9.260;2023-12-29T09:19:21;2.47;;;1.27;;
15356;SDS011;7778;48.792;9.260;2023-12-29T09:22:07;1.80;;;1.40;;
15356;SDS011;7778;48.792;9.260;2023-12-29T09:24:53;4.82;;;1.23;;
15356;SDS011;7778;48.792;9.260;2023-12-29T09:27:39;3.38;;;1.50;;
15356;SDS011;7778;48.792;9.260;2023-12-29T09:30:25;2.05;;;1.08;;
15356;SDS011;7778;48.792;9.260;2023-12-29T09:33:11;2.38;;;1.50;;
15356;SDS011;7778;48.792;9.260;2023-12-29T09:35:56;1.38;;;1.02;;
15356;SDS011;7778;48.792;9.260;2023-12-29T09:38:44;2.13;;;1.30;;
15356;SDS011;7778;48.792;9.260;2023-12-29T09:41:30;1.52;;;1.00;;
15356;SDS011;7778;48.792;9.260;2023-12-29T09:44:20;1.02;;;0.80;;
15356;SDS011;7778;48.792;9.260;2023-12-29T09:47:06;1.20;;;1.10;;
15356;SDS011;7778;48.792;9.260;2023-12-29T09:49:56;2.50;;;1.23;;
15356;SDS011;7778;48.792;9.260;2023-12-29T09:52:41;2.35;;;1.23;;
15356;SDS011;7778;48.792;9.260;2023-12-29T09:55:29;1.08;;;0.90;;
15356;SDS011;7778;48.792;9.260;2023-12-29T09:58:17;1.52;;;1.13;;
15356;SDS011;7778;48.792;9.260;2023-12-29T10:01:06;1.15;;;1.05;;
15356;SDS011;7778;48.792;9.260;2023-12-29T10:03:52;1.05;;;0.98;;
15356;SDS011;7778;48.792;9.260;2023-12-29T10:06:38;1.30;;;1.20;;
15356;SDS011;7778;48.792;9.260;2023-12-29T10:09:30;1.30;;;0.98;;
15356;SDS011;7778;48.792;9.260;2023-12-29T10:12:20;1.65;;;1.20;;
15356;SDS011;7778;48.792;9.260;2023-12-29T10:15:10;1.73;;;1.10;;
15356;SDS011;7778;48.792;9.260;2023-12-29T10:18:00;0.80;;;0.80;;
15356;SDS011;7778;48.792;9.260;2023-12-29T10:20:57;0.85;;;0.80;;
15356;SDS011;7778;48.792;9.260;2023-12-29T10:23:51;0.73;;;0.70;;
15356;SDS011;7778;48.792;9.260;2023-12-29T10:26:42;1.10;;;1.00;;
15356;SDS011;7778;48.792;9.260;2023-12-29T10:29:30;1.10;;;0.80;;
15356;SDS011;7778;48.792;9.260;2023-12-29T10:32:17;2.25;;;1.38;;
15356;SDS011;7778;48.792;9.260;2023-12-29T10:35:10;0.80;;;0.80;;
15356;SDS011;7778;48.792;9.260;2023-12-29T10:38:07;1.10;;;0.95;;
15356;SDS011;7778;48.792;9.260;2023-12-29T10:40:55;0.70;;;0.70;;
15356;SDS011;7778;48.792;9.260;2023-12-29T10:43:59;0.82;;;0.75;;
15356;SDS011;7778;48.792;9.260;2023-12-29T10:46:53;0.80;;;0.80;;
15356;SDS011;7778;48.792;9.260;2023-12-29T10:49:40;0.63;;;0.57;;
15356;SDS011;7778;48.792;9.260;2023-12-29T10:52:26;2.42;;;0.70;;
15356;SDS011;7778;48.792;9.260;2023-12-29T10:55:11;0.88;;;0.80;;
15356;SDS011;7778;48.792;9.260;2023-12-29T10:57:59;0.82;;;0.82;;
15356;SDS011;7778;48.792;9.260;2023-12-29T11:00:45;1.23;;;0.70;;
15356;SDS011;7778;48.792;9.260;2023-12-29T11:03:33;0.60;;;0.55;;
15356;SDS011;7778;48.792;9.260;2023-12-29T11:06:18;0.57;;;0.57;;
15356;SDS011;7778;48.792;9.260;2023-12-29T11:09:04;0.65;;;0.55;;
15356;SDS011;7778;48.792;9.260;2023-12-29T11:11:50;0.95;;;0.60;;
15356;SDS011;7778;48.792;9.260;2023-12-29T11:14:36;0.47;;;0.47;;
15356;SDS011;7778;48.792;9.260;2023-12-29T11:17:26;0.90;;;0.70;;
15356;SDS011;7778;48.792;9.260;2023-12-29T11:20:15;0.70;;;0.70;;
15356;SDS011;7778;48.792;9.260;2023-12-29T11:23:02;1.77;;;0.80;;
15356;SDS011;7778;48.792;9.260;2023-12-29T11:25:50;0.70;;;0.60;;
15356;SDS011;7778;48.792;9.260;2023-12-29T11:28:37;1.02;;;0.82;;
15356;SDS011;7778;48.792;9.260;2023-12-29T11:31:23;0.70;;;0.70;;
15356;SDS011;7778;48.792;9.260;2023-12-29T11:34:09;0.75;;;0.70;;
15356;SDS011;7778;48.792;9.260;2023-12-29T11:37:05;1.13;;;0.68;;
15356;SDS011;7778;48.792;9.260;2023-12-29T11:40:04;0.43;;;0.43;;
15356;SDS011;7778;48.792;9.260;2023-12-29T11:43:03;1.00;;;0.90;;
15356;SDS011;7778;48.792;9.260;2023-12-29T11:45:53;0.60;;;0.60;;
15356;SDS011;7778;48.792;9.260;2023-12-29T11:48:54;1.20;;;0.75;;
15356;SDS011;7778;48.792;9.260;2023-12-29T11:51:42;0.80;;;0.70;;
15356;SDS011;7778;48.792;9.260;2023-12-29T11:54:34;1.05;;;0.80;;
15356;SDS011;7778;48.792;9.260;2023-12-29T11:57:30;0.68;;;0.50;;
15356;SDS011;7778;48.792;9.260;2023-12-29T12:00:16;0.60;;;0.60;;
15356;SDS011;7778;48.792;9.260;2023-12-29T12:03:07;0.90;;;0.60;;
15356;SDS011;7778;48.792;9.260;2023-12-29T12:06:03;1.65;;;1.13;;
15356;SDS011;7778;48.792;9.260;2023-12-29T12:08:49;1.10;;;0.60;;
15356;SDS011;7778;48.792;9.260;2023-12-29T12:12:03;1.20;;;0.80;;
15356;SDS011;7778;48.792;9.260;2023-12-29T12:14:50;1.20;;;0.70;;
15356;SDS011;7778;48.792;9.260;2023-12-29T12:17:37;0.55;;;0.52;;
15356;SDS011;7778;48.792;9.260;2023-12-29T12:20:23;1.50;;;0.82;;
15356;SDS011;7778;48.792;9.260;2023-12-29T12:23:10;3.13;;;1.00;;
15356;SDS011;7778;48.792;9.260;2023-12-29T12:26:02;1.95;;;1.10;;
15356;SDS011;7778;48.792;9.260;2023-12-29T12:28:53;0.95;;;0.82;;
15356;SDS011;7778;48.792;9.260;2023-12-29T12:31:45;1.92;;;0.98;;
15356;SDS011;7778;48.792;9.260;2023-12-29T12:34:37;1.08;;;0.98;;
15356;SDS011;7778;48.792;9.260;2023-12-29T12:37:24;1.42;;;1.10;;
15356;SDS011;7778;48.792;9.260;2023-12-29T12:40:11;1.70;;;1.33;;
15356;SDS011;7778;48.792;9.260;2023-12-29T12:43:13;1.88;;;1.30;;
15356;SDS011;7778;48.792;9.260;2023-12-29T12:46:00;1.13;;;1.02;;
15356;SDS011;7778;48.792;9.260;2023-12-29T12:48:48;1.33;;;1.08;;
15356;SDS011;7778;48.792;9.260;2023-12-29T12:51:34;1.42;;;1.20;;
15356;SDS011;7778;48.792;9.260;2023-12-29T12:54:19;3.03;;;1.40;;
15356;SDS011;7778;48.792;9.260;2023-12-29T12:57:06;4.03;;;1.50;;
15356;SDS011;7778;48.792;9.260;2023-12-29T12:59:51;3.22;;;1.60;;
15356;SDS011;7778;48.792;9.260;2023-12-29T13:02:40;7.95;;;4.45;;
15356;SDS011;7778;48.792;9.260;2023-12-29T13:05:29;5.25;;;3.00;;
15356;SDS011;7778;48.792;9.260;2023-12-29T13:08:15;1.73;;;1.10;;
15356;SDS011;7778;48.792;9.260;2023-12-29T13:11:02;1.10;;;1.00;;
15356;SDS011;7778;48.792;9.260;2023-12-29T13:13:49;1.95;;;1.38;;
15356;SDS011;7778;48.792;9.260;2023-12-29T13:16:40;2.33;;;1.45;;
15356;SDS011;7778;48.792;9.260;2023-12-29T13:19:27;0.60;;;0.60;;
15356;SDS011;7778;48.792;9.260;2023-12-29T13:22:13;2.05;;;0.98;;
15356;SDS011;7778;48.792;9.260;2023-12-29T13:24:59;1.75;;;1.35;;
15356;SDS011;7778;48.792;9.260;2023-12-29T13:27:45;2.47;;;1.23;;
15356;SDS011;7778;48.792;9.260;2023-12-29T13:30:31;3.15;;;1.10;;
15356;SDS011;7778;48.792;9.260;2023-12-29T13:33:23;0.90;;;0.68;;
15356;SDS011;7778;48.792;9.260;2023-12-29T13:36:19;2.25;;;0.70;;
15356;SDS011;7778;48.792;9.260;2023-12-29T13:39:15;1.00;;;0.95;;
15356;SDS011;7778;48.792;9.260;2023-12-29T13:42:10;0.57;;;0.57;;
15356;SDS011;7778;48.792;9.260;2023-12-29T13:44:58;1.05;;;0.77;;
15356;SDS011;7778;48.792;9.260;2023-12-29T13:47:45;1.45;;;0.82;;
15356;SDS011;7778;48.792;9.260;2023-12-29T13:50:32;1.10;;;0.80;;
15356;SDS011;7778;48.792;9.260;2023-12-29T13:53:19;0.90;;;0.73;;
15356;SDS011;7778;48.792;9.260;2023-12-29T13:56:07;0.93;;;0.60;;
15356;SDS011;7778;48.792;9.260;2023-12-29T13:58:54;0.80;;;0.80;;
15356;SDS011;7778;48.792;9.260;2023-12-29T14:01:40;1.85;;;0.90;;
15356;SDS011;7778;48.792;9.260;2023-12-29T14:04:32;0.85;;;0.80;;
15356;SDS011;7778;48.792;9.260;2023-12-29T14:07:18;1.17;;;0.75;;
15356;SDS011;7778;48.792;9.260;2023-12-29T14:10:10;1.42;;;1.25;;
15356;SDS011;7778;48.792;9.260;2023-12-29T14:13:02;1.77;;;1.35;;
15356;SDS011;7778;48.792;9.260;2023-12-29T14:15:50;2.83;;;0.82;;
15356;SDS011;7778;48.792;9.260;2023-12-29T14:18:52;2.15;;;1.45;;
15356;SDS011;7778;48.792;9.260;2023-12-29T14:21:40;2.33;;;1.25;;
15356;SDS011;7778;48.792;9.260;2023-12-29T14:24:26;7.00;;;3.63;;
15356;SDS011;7778;48.792;9.260;2023-12-29T14:27:14;3.72;;;2.20;;
15356;SDS011;7778;48.792;9.260;2023-12-29T14:30:02;1.98;;;0.95;;
15356;SDS011;7778;48.792;9.260;2023-12-29T14:32:48;3.40;;;1.55;;
15356;SDS011;7778;48.792;9.260;2023-12-29T14:35:34;1.33;;;1.10;;
15356;SDS011;7778;48.792;9.260;2023-12-29T14:38:20;2.60;;;1.35;;
15356;SDS011;7778;48.792;9.260;2023-12-29T14:41:06;4.25;;;2.13;;
15356;SDS011;7778;48.792;9.260;2023-12-29T14:43:54;3.13;;;1.60;;
15356;SDS011;7778;48.792;9.260;2023-12-29T14:46:40;4.00;;;1.85;;
15356;SDS011;7778;48.792;9.260;2023-12-29T14:49:27;5.80;;;2.63;;
15356;SDS011;7778;48.792;9.260;2023-12-29T14:52:13;3.85;;;1.92;;
15356;SDS011;7778;48.792;9.260;2023-12-29T14:54:58;2.78;;;1.48;;
15356;SDS011;7778;48.792;9.260;2023-12-29T14:57:44;4.57;;;1.55;;
15356;SDS011;7778;48.792;9.260;2023-12-29T15:00:31;1.15;;;0.85;;
15356;SDS011;7778;48.792;9.260;2023-12-29T15:03:17;2.13;;;1.60;;
15356;SDS011;7778;48.792;9.260;2023-12-29T15:06:04;5.00;;;2.22;;
15356;SDS011;7778;48.792;9.260;2023-12-29T15:08:50;2.25;;;1.55;;
15356;SDS011;7778;48.792;9.260;2023-12-29T15:11:35;2.72;;;1.73;;
15356;SDS011;7778;48.792;9.260;2023-12-29T15:14:22;2.50;;;1.17;;
15356;SDS011;7778;48.792;9.260;2023-12-29T15:17:09;2.60;;;1.48;;
15356;SDS011;7778;48.792;9.260;2023-12-29T15:19:55;3.85;;;1.35;;
15356;SDS011;7778;48.792;9.260;2023-12-29T15:22:40;3.00;;;1.48;;
15356;SDS011;7778;48.792;9.260;2023-12-29T15:25:26;2.58;;;1.17;;
15356;SDS011;7778;48.792;9.260;2023-12-29T15:28:12;1.90;;;1.60;;
15356;SDS011;7778;48.792;9.260;2023-12-29T15:31:00;4.72;;;1.40;;
15356;SDS011;7778;48.792;9.260;2023-12-29T15:33:47;3.50;;;1.20;;
15356;SDS011;7778;48.792;9.260;2023-12-29T15:36:33;0.95;;;0.75;;
15356;SDS011;7778;48.792;9.260;2023-12-29T15:39:19;3.45;;;1.42;;
15356;SDS011;7778;48.792;9.260;2023-12-29T15:42:04;5.13;;;1.35;;
15356;SDS011;7778;48.792;9.260;2023-12-29T15:44:50;3.42;;;1.42;;
15356;SDS011;7778;48.792;9.260;2023-12-29T15:47:36;3.72;;;1.75;;
15356;SDS011;7778;48.792;9.260;2023-12-29T15:50:23;2.65;;;1.42;;
15356;SDS011;7778;48.792;9.260;2023-12-29T15:53:08;2.88;;;1.25;;
15356;SDS011;7778;48.792;9.260;2023-12-29T15:55:54;2.05;;;1.10;;
15356;SDS011;7778;48.792;9.260;2023-12-29T15:58:39;1.65;;;1.25;;
15356;SDS011;7778;48.792;9.260;2023-12-29T16:01:25;5.80;;;1.75;;
15356;SDS011;7778;48.792;9.260;2023-12-29T16:04:11;5.72;;;1.80;;
15356;SDS011;7778;48.792;9.260;2023-12-29T16:06:58;1.83;;;1.27;;
15356;SDS011;7778;48.792;9.260;2023-12-29T16:09:44;2.13;;;1.15;;
15356;SDS011;7778;48.792;9.260;2023-12-29T16:12:29;3.10;;;1.73;;
15356;SDS011;7778;48.792;9.260;2023-12-29T16:15:15;2.28;;;1.40;;
15356;SDS011;7778;48.792;9.260;2023-12-29T16:18:00;4.50;;;1.80;;
15356;SDS011;7778;48.792;9.260;2023-12-29T16:20:46;1.45;;;1.00;;
15356;SDS011;7778;48.792;9.260;2023-12-29T16:23:33;2.40;;;1.10;;
15356;SDS011;7778;48.792;9.260;2023-12-29T16:26:19;1.73;;;1.10;;
15356;SDS011;7778;48.792;9.260;2023-12-29T16:29:05;2.60;;;1.17;;
15356;SDS011;7778;48.792;9.260;2023-12-29T16:31:50;3.22;;;1.50;;
15356;SDS011;7778;48.792;9.260;2023-12-29T16:34:36;5.80;;;1.75;;
15356;SDS011;7778;48.792;9.260;2023-12-29T16:37:22;4.07;;;2.17;;
15356;SDS011;7778;48.792;9.260;2023-12-29T16:40:10;3.08;;;1.88;;
15356;SDS011;7778;48.792;9.260;2023-12-29T16:42:57;5.78;;;3.10;;
15356;SDS011;7778;48.792;9.260;2023-12-29T16:45:42;3.97;;;1.88;;
15356;SDS011;7778;48.792;9.260;2023-12-29T16:48:28;4.00;;;1.15;;
15356;SDS011;7778;48.792;9.260;2023-12-29T16:51:13;1.92;;;1.38;;
15356;SDS011;7778;48.792;9.260;2023-12-29T16:53:59;1.17;;;1.08;;
15356;SDS011;7778;48.792;9.260;2023-12-29T16:56:47;1.30;;;1.05;;
15356;SDS011;7778;48.792;9.260;2023-12-29T16:59:32;1.30;;;0.95;;
15356;SDS011;7778;48.792;9.260;2023-12-29T17:02:18;2.95;;;1.10;;